Terminal Aerodrome Forecast
Issued by NWS

Home | Current Version | Previous Version | Text Only | Print | Product List | Glossary Off
Versions: 1 2 3 4 5 6 7 8 9 10 11 12 13 14 15 16

000
FTUS43 KICT 210500
TAFCNU
TAF
KCNU 210520Z 2106/2206 17010KT P6SM SKC
      TEMPO 2111/2114 4SM BR
     FM211500 19015G22KT P6SM SCT060
     FM220200 19014KT P6SM SCT120=

USA.gov is the U.S. government's official web portal to all federal, state and local government web resources and services.